Time;durP1;ratioP1;P1;durP2;ratioP2;P2;SDS_P1;SDS_P2;PMS_P1;PMS_P2;Temp;Humidity;BMP_temperature;BMP_pressure;BME280_temperature;BME280_humidity;BME280_pressure;Samples;Min_cycle;Max_cycle;Signal;HPM_P1;HPM_P2
2023/05/16 00:00:33;;;;;;;17.30;14.80;;;;;;;;;;5010953;28;20521;-76
2023/05/16 00:02:59;;;;;;;13.03;11.67;;;;;;;;;;5011855;28;20512;-76
2023/05/16 00:05:26;;;;;;;13.53;12.13;;;;;;;;;;5016824;28;20418;-77
2023/05/16 00:07:51;;;;;;;19.43;17.83;;;;;;;;;;5004187;28;20514;-77
2023/05/16 00:10:18;;;;;;;10.87;9.87;;;;;;;;;;5018792;28;20537;-76
2023/05/16 00:12:44;;;;;;;22.03;19.83;;;;;;;;;;5013088;28;20463;-76
2023/05/16 00:15:14;;;;;;;7.70;7.07;;;;;;;;;;5016715;28;20434;-76
2023/05/16 00:17:41;;;;;;;8.80;8.07;;;;;;;;;;5010627;28;20490;-76
2023/05/16 00:20:10;;;;;;;8.53;7.73;;;;;;;;;;5013174;28;20557;-76
2023/05/16 00:22:37;;;;;;;9.80;8.80;;;;;;;;;;5004662;28;21107;-75
2023/05/16 00:25:03;;;;;;;7.70;7.10;;;;;;;;;;5017057;28;21030;-75
2023/05/16 00:27:29;;;;;;;8.87;8.07;;;;;;;;;;5015726;28;20426;-75
2023/05/16 00:29:55;;;;;;;6.43;5.93;;;;;;;;;;5007848;28;20450;-75
2023/05/16 00:32:21;;;;;;;5.90;5.60;;;;;;;;;;5019395;28;20588;-77
2023/05/16 00:34:47;;;;;;;6.47;6.13;;;;;;;;;;4985679;28;20542;-77
2023/05/16 00:37:13;;;;;;;6.10;5.80;;;;;;;;;;5021945;28;20533;-76
2023/05/16 00:39:39;;;;;;;6.60;6.20;;;;;;;;;;5009684;28;20466;-76
2023/05/16 00:42:06;;;;;;;4.87;4.73;;;;;;;;;;5006680;28;20459;-76
2023/05/16 00:44:32;;;;;;;8.03;7.53;;;;;;;;;;5017077;28;20435;-76
2023/05/16 00:46:59;;;;;;;6.63;6.33;;;;;;;;;;5020163;28;20968;-76
2023/05/16 00:49:25;;;;;;;6.70;6.30;;;;;;;;;;5014999;28;20442;-75
2023/05/16 00:51:51;;;;;;;6.60;6.23;;;;;;;;;;5005702;28;20446;-76
2023/05/16 00:54:18;;;;;;;5.83;5.33;;;;;;;;;;5010017;28;20513;-75
2023/05/16 00:56:44;;;;;;;6.13;5.93;;;;;;;;;;5020735;28;20435;-76
2023/05/16 00:59:10;;;;;;;6.17;5.80;;;;;;;;;;5032070;28;20470;-76
2023/05/16 01:01:37;;;;;;;7.43;7.03;;;;;;;;;;5031018;28;20438;-77
2023/05/16 01:04:03;;;;;;;4.73;4.63;;;;;;;;;;5015925;28;20542;-77
2023/05/16 01:06:29;;;;;;;7.93;7.33;;;;;;;;;;5023151;28;20534;-76
2023/05/16 01:08:55;;;;;;;7.40;7.00;;;;;;;;;;5016021;28;20533;-76
2023/05/16 01:11:31;;;;;;;8.27;7.60;;;;;;;;;;5012570;28;20511;-76
2023/05/16 01:14:15;;;;;;;7.23;6.80;;;;;;;;;;5005167;28;20446;-76
2023/05/16 01:16:45;;;;;;;7.10;6.63;;;;;;;;;;5022978;28;20810;-76
2023/05/16 01:19:18;;;;;;;7.13;6.63;;;;;;;;;;4998103;28;20474;-76
2023/05/16 01:22:04;;;;;;;7.73;7.23;;;;;;;;;;5014931;28;20462;-76
2023/05/16 01:24:33;;;;;;;8.87;8.20;;;;;;;;;;5007409;28;20462;-75
2023/05/16 01:26:59;;;;;;;7.20;6.73;;;;;;;;;;5018038;28;20450;-75
2023/05/16 01:29:26;;;;;;;7.47;7.17;;;;;;;;;;5014784;28;20455;-76
2023/05/16 01:31:52;;;;;;;9.00;8.23;;;;;;;;;;5020552;28;20432;-75
2023/05/16 01:34:18;;;;;;;7.47;6.77;;;;;;;;;;5015852;28;21009;-76
2023/05/16 01:37:03;;;;;;;7.70;7.20;;;;;;;;;;5036371;28;20445;-76
2023/05/16 01:39:32;;;;;;;8.20;7.80;;;;;;;;;;5035044;28;20470;-76
2023/05/16 01:41:58;;;;;;;7.23;5.60;;;;;;;;;;5030578;28;20431;-78
2023/05/16 01:44:31;;;;;;;7.53;5.60;;;;;;;;;;5013780;28;20470;-76
2023/05/16 01:46:59;;;;;;;10.40;9.53;;;;;;;;;;5016286;28;20944;-76
2023/05/16 01:49:26;;;;;;;8.63;7.63;;;;;;;;;;5006406;28;20872;-76
2023/05/16 01:52:00;;;;;;;6.83;6.27;;;;;;;;;;5020653;28;20431;-76
2023/05/16 01:54:29;;;;;;;9.23;8.27;;;;;;;;;;5011934;28;20497;-75
2023/05/16 01:56:55;;;;;;;9.33;8.63;;;;;;;;;;5025617;28;20921;-76
2023/05/16 01:59:23;;;;;;;13.00;9.07;;;;;;;;;;5009108;28;21037;-75
2023/05/16 02:01:49;;;;;;;9.83;8.93;;;;;;;;;;5013749;28;20481;-75
2023/05/16 02:04:15;;;;;;;9.63;8.97;;;;;;;;;;5004973;28;21085;-75
2023/05/16 02:06:41;;;;;;;13.37;9.23;;;;;;;;;;5014624;28;20428;-76
2023/05/16 02:09:08;;;;;;;16.10;8.60;;;;;;;;;;5004499;28;20447;-76
2023/05/16 02:11:34;;;;;;;11.47;10.40;;;;;;;;;;5019240;28;20428;-76
2023/05/16 02:14:00;;;;;;;13.07;10.77;;;;;;;;;;5009112;28;20431;-76
2023/05/16 02:16:26;;;;;;;14.93;11.10;;;;;;;;;;5025868;28;20797;-74
2023/05/16 02:18:52;;;;;;;10.23;9.43;;;;;;;;;;5006306;28;20499;-75
2023/05/16 02:21:18;;;;;;;10.53;9.50;;;;;;;;;;5018795;28;20505;-76
2023/05/16 02:23:44;;;;;;;9.03;8.13;;;;;;;;;;4993342;28;20495;-75
2023/05/16 02:26:10;;;;;;;10.33;9.40;;;;;;;;;;5015206;28;20494;-76
2023/05/16 02:28:36;;;;;;;11.77;9.90;;;;;;;;;;5014514;28;20530;-78
2023/05/16 02:31:02;;;;;;;10.60;7.13;;;;;;;;;;5013654;28;20436;-75
2023/05/16 02:33:28;;;;;;;12.93;7.10;;;;;;;;;;5009825;28;20465;-75
2023/05/16 02:35:54;;;;;;;11.50;7.83;;;;;;;;;;5016491;28;20521;-75
2023/05/16 02:38:21;;;;;;;10.20;8.60;;;;;;;;;;5014424;28;20958;-75
2023/05/16 02:40:47;;;;;;;10.30;7.00;;;;;;;;;;5018553;28;20498;-75
2023/05/16 02:43:13;;;;;;;12.00;8.53;;;;;;;;;;5011746;28;21206;-75
2023/05/16 02:45:39;;;;;;;10.43;9.43;;;;;;;;;;5018082;28;20461;-75
2023/05/16 02:48:05;;;;;;;13.47;7.90;;;;;;;;;;5014327;28;20962;-75
2023/05/16 02:50:32;;;;;;;14.27;9.73;;;;;;;;;;5013145;28;20419;-75
2023/05/16 02:52:58;;;;;;;12.60;9.43;;;;;;;;;;5008333;28;20461;-75
2023/05/16 02:55:25;;;;;;;14.50;9.83;;;;;;;;;;5019899;28;20534;-76
2023/05/16 02:57:51;;;;;;;42.50;36.43;;;;;;;;;;5009385;28;20471;-74
2023/05/16 03:00:17;;;;;;;10.27;9.30;;;;;;;;;;5012691;28;21270;-76
2023/05/16 03:02:44;;;;;;;12.37;9.93;;;;;;;;;;5012913;28;20453;-75
2023/05/16 03:05:10;;;;;;;19.03;11.10;;;;;;;;;;5010773;28;20454;-76
2023/05/16 03:07:36;;;;;;;16.27;14.87;;;;;;;;;;5016796;28;20470;-76
2023/05/16 03:10:02;;;;;;;21.07;16.87;;;;;;;;;;5011321;28;20420;-76
2023/05/16 03:12:28;;;;;;;31.00;28.27;;;;;;;;;;5014009;28;20513;-76
2023/05/16 03:14:54;;;;;;;19.13;17.33;;;;;;;;;;4992612;28;20534;-76
2023/05/16 03:17:21;;;;;;;14.57;11.60;;;;;;;;;;5007410;28;20427;-77
2023/05/16 03:19:47;;;;;;;17.07;9.10;;;;;;;;;;5003909;28;20471;-76
2023/05/16 03:22:13;;;;;;;15.60;8.50;;;;;;;;;;5010712;28;20546;-75
2023/05/16 03:24:39;;;;;;;13.73;8.90;;;;;;;;;;4996703;28;20466;-75
2023/05/16 03:27:05;;;;;;;8.40;7.73;;;;;;;;;;5008692;28;20498;-76
2023/05/16 03:29:31;;;;;;;20.43;11.03;;;;;;;;;;5011082;28;20455;-75
2023/05/16 03:31:57;;;;;;;9.27;8.30;;;;;;;;;;5021888;28;20431;-75
2023/05/16 03:34:23;;;;;;;15.30;10.00;;;;;;;;;;5035566;28;20446;-75
2023/05/16 03:36:49;;;;;;;11.97;9.00;;;;;;;;;;5005670;28;20453;-75
2023/05/16 03:39:16;;;;;;;18.00;8.20;;;;;;;;;;5016391;28;20478;-74
2023/05/16 03:41:42;;;;;;;14.83;9.37;;;;;;;;;;5015963;28;20823;-75
2023/05/16 03:44:08;;;;;;;9.83;8.83;;;;;;;;;;5010338;28;21117;-77
2023/05/16 03:46:34;;;;;;;11.73;10.73;;;;;;;;;;5013514;28;20447;-75
2023/05/16 03:49:00;;;;;;;17.27;13.17;;;;;;;;;;5005550;28;20929;-75
2023/05/16 03:51:27;;;;;;;29.47;26.90;;;;;;;;;;5007934;28;20934;-74
2023/05/16 03:53:53;;;;;;;114.33;102.40;;;;;;;;;;5010430;28;20439;-74
2023/05/16 03:56:20;;;;;;;111.60;102.80;;;;;;;;;;5011085;28;21235;-75
2023/05/16 03:58:46;;;;;;;115.57;106.37;;;;;;;;;;5008105;28;20475;-75
2023/05/16 04:01:12;;;;;;;92.13;85.13;;;;;;;;;;5016987;28;20563;-75
2023/05/16 04:03:38;;;;;;;56.53;52.20;;;;;;;;;;5017634;28;20991;-75
2023/05/16 04:06:05;;;;;;;79.17;73.40;;;;;;;;;;5011629;28;20458;-75
2023/05/16 04:08:31;;;;;;;116.30;107.10;;;;;;;;;;4989948;28;20857;-76
2023/05/16 04:10:57;;;;;;;17.23;13.33;;;;;;;;;;5014413;28;20431;-76
2023/05/16 04:13:23;;;;;;;29.10;26.40;;;;;;;;;;5014349;28;20439;-74
2023/05/16 04:15:49;;;;;;;30.10;27.40;;;;;;;;;;5011032;28;20469;-76
2023/05/16 04:18:15;;;;;;;73.73;68.33;;;;;;;;;;5005390;28;21128;-74
2023/05/16 04:20:46;;;;;;;14.03;12.10;;;;;;;;;;5026420;28;20485;-75
2023/05/16 04:23:12;;;;;;;19.30;16.50;;;;;;;;;;5015578;28;20439;-74
2023/05/16 04:25:38;;;;;;;17.33;16.03;;;;;;;;;;5016166;28;20868;-74
2023/05/16 04:28:04;;;;;;;28.73;26.43;;;;;;;;;;5018258;28;20443;-73
2023/05/16 04:30:31;;;;;;;18.50;16.63;;;;;;;;;;5022419;28;20553;-75
2023/05/16 04:32:58;;;;;;;21.10;19.33;;;;;;;;;;5023938;28;20450;-74
2023/05/16 04:35:24;;;;;;;22.93;21.07;;;;;;;;;;5018349;28;20521;-74
2023/05/16 04:37:50;;;;;;;35.87;31.20;;;;;;;;;;5019564;28;20427;-73
2023/05/16 04:40:16;;;;;;;15.13;13.23;;;;;;;;;;5011482;28;20494;-74
2023/05/16 04:42:42;;;;;;;21.67;19.87;;;;;;;;;;5011445;28;20466;-75
2023/05/16 04:45:10;;;;;;;33.90;31.27;;;;;;;;;;5017173;28;20445;-74
2023/05/16 04:47:36;;;;;;;31.57;28.80;;;;;;;;;;5015160;28;20478;-74
2023/05/16 04:50:03;;;;;;;34.93;32.47;;;;;;;;;;5025145;28;20468;-74
2023/05/16 04:52:29;;;;;;;19.70;18.10;;;;;;;;;;5016219;28;20423;-75
2023/05/16 04:54:55;;;;;;;23.73;21.67;;;;;;;;;;5018841;28;20446;-77
2023/05/16 04:57:21;;;;;;;30.60;27.50;;;;;;;;;;5025392;28;20521;-76
2023/05/16 04:59:47;;;;;;;14.70;12.17;;;;;;;;;;5010708;28;20477;-75
2023/05/16 05:02:13;;;;;;;25.67;23.33;;;;;;;;;;5008849;28;21005;-74
2023/05/16 05:04:39;;;;;;;29.23;26.63;;;;;;;;;;4999496;28;20455;-75
2023/05/16 05:07:05;;;;;;;68.13;62.63;;;;;;;;;;5019194;28;20489;-75
2023/05/16 05:09:31;;;;;;;40.20;36.50;;;;;;;;;;5014152;28;20636;-75
2023/05/16 05:11:57;;;;;;;33.00;29.80;;;;;;;;;;5014658;28;20419;-74
2023/05/16 05:14:23;;;;;;;56.53;52.77;;;;;;;;;;5020869;28;20442;-74
2023/05/16 05:16:49;;;;;;;71.10;64.80;;;;;;;;;;5011119;28;20430;-75
2023/05/16 05:19:15;;;;;;;78.63;74.00;;;;;;;;;;5014283;28;20477;-74
2023/05/16 05:21:41;;;;;;;56.30;53.00;;;;;;;;;;5015863;28;20412;-74
2023/05/16 05:24:07;;;;;;;187.87;175.77;;;;;;;;;;5030725;28;21009;-74
2023/05/16 05:26:33;;;;;;;276.97;257.63;;;;;;;;;;5031214;28;20422;-77
2023/05/16 05:28:59;;;;;;;166.17;155.37;;;;;;;;;;5009430;28;20482;-75
2023/05/16 05:31:25;;;;;;;115.60;109.23;;;;;;;;;;5016910;28;20775;-76
2023/05/16 05:33:51;;;;;;;37.90;35.33;;;;;;;;;;5013522;28;20446;-75
2023/05/16 05:36:17;;;;;;;18.17;11.63;;;;;;;;;;5015730;28;20430;-77
2023/05/16 05:38:43;;;;;;;11.00;10.30;;;;;;;;;;5016467;28;20463;-75
2023/05/16 05:41:10;;;;;;;24.47;22.77;;;;;;;;;;5022932;28;20945;-76
2023/05/16 05:43:37;;;;;;;14.63;13.23;;;;;;;;;;5008331;28;20455;-77
2023/05/16 05:46:03;;;;;;;10.83;9.20;;;;;;;;;;5016403;28;20439;-76
2023/05/16 05:48:29;;;;;;;13.13;11.80;;;;;;;;;;5014137;28;20432;-75
2023/05/16 05:50:55;;;;;;;69.53;65.17;;;;;;;;;;5014909;28;20431;-76
2023/05/16 05:53:21;;;;;;;52.67;48.03;;;;;;;;;;5002608;28;20447;-76
2023/05/16 05:55:47;;;;;;;9.03;8.13;;;;;;;;;;5026928;28;20441;-75
2023/05/16 05:58:13;;;;;;;36.00;32.00;;;;;;;;;;5025506;28;20442;-75
2023/05/16 06:00:39;;;;;;;15.37;14.17;;;;;;;;;;5020176;28;21566;-75
2023/05/16 06:03:05;;;;;;;12.93;8.67;;;;;;;;;;5034471;28;20430;-74
2023/05/16 06:05:32;;;;;;;18.23;14.70;;;;;;;;;;5021536;28;21119;-75
2023/05/16 06:07:58;;;;;;;17.93;16.30;;;;;;;;;;5030415;28;20432;-75
2023/05/16 06:10:24;;;;;;;19.90;18.10;;;;;;;;;;5008168;28;20485;-75
2023/05/16 06:12:49;;;;;;;18.73;16.93;;;;;;;;;;5012877;28;20428;-75
2023/05/16 06:15:15;;;;;;;14.23;7.93;;;;;;;;;;5009828;28;20443;-75
2023/05/16 06:17:41;;;;;;;9.03;7.67;;;;;;;;;;5011830;28;20969;-74
2023/05/16 06:20:08;;;;;;;7.77;6.80;;;;;;;;;;5010652;28;20570;-75
2023/05/16 06:22:34;;;;;;;9.90;8.03;;;;;;;;;;5017542;28;20438;-75
2023/05/16 06:25:00;;;;;;;8.27;7.13;;;;;;;;;;5014562;28;21032;-75
2023/05/16 06:27:26;;;;;;;14.97;13.50;;;;;;;;;;5017709;28;20441;-76
2023/05/16 06:29:52;;;;;;;7.83;7.20;;;;;;;;;;5015932;28;20446;-74
2023/05/16 06:32:18;;;;;;;9.73;7.17;;;;;;;;;;5012025;28;20931;-75
2023/05/16 06:34:44;;;;;;;7.00;6.30;;;;;;;;;;5014903;28;20449;-74
2023/05/16 06:37:10;;;;;;;28.33;25.33;;;;;;;;;;5021763;28;20479;-74
2023/05/16 06:39:36;;;;;;;9.87;9.03;;;;;;;;;;5018953;28;21248;-77
2023/05/16 06:42:02;;;;;;;10.33;9.67;;;;;;;;;;5020943;28;20427;-75
2023/05/16 06:44:28;;;;;;;48.27;45.33;;;;;;;;;;5008946;28;20471;-74
2023/05/16 06:46:54;;;;;;;51.77;48.27;;;;;;;;;;5027683;28;20502;-75
2023/05/16 06:49:20;;;;;;;30.63;28.33;;;;;;;;;;5024070;28;20604;-75
2023/05/16 06:51:46;;;;;;;10.93;9.93;;;;;;;;;;5022547;28;20410;-73
2023/05/16 06:54:12;;;;;;;24.70;22.30;;;;;;;;;;5002328;28;20440;-74
2023/05/16 06:56:37;;;;;;;9.57;8.67;;;;;;;;;;5021154;28;20435;-73
2023/05/16 06:59:03;;;;;;;13.73;12.43;;;;;;;;;;4994595;28;20463;-74
2023/05/16 07:01:29;;;;;;;10.93;9.93;;;;;;;;;;5014528;28;20807;-73
2023/05/16 07:03:55;;;;;;;9.37;8.60;;;;;;;;;;5016573;28;20447;-74
2023/05/16 07:06:21;;;;;;;8.23;7.67;;;;;;;;;;5017933;28;20456;-75
2023/05/16 07:08:47;;;;;;;6.57;6.17;;;;;;;;;;5021138;28;20442;-74
2023/05/16 07:11:13;;;;;;;8.53;7.37;;;;;;;;;;5002518;28;20453;-75
2023/05/16 07:13:39;;;;;;;14.63;8.03;;;;;;;;;;5012544;28;20630;-74
2023/05/16 07:16:07;;;;;;;11.90;6.80;;;;;;;;;;5011810;28;20427;-73
2023/05/16 07:18:33;;;;;;;7.80;7.10;;;;;;;;;;5024372;28;20432;-72
2023/05/16 07:20:59;;;;;;;13.93;10.07;;;;;;;;;;5034923;28;20459;-75
2023/05/16 07:23:25;;;;;;;7.80;7.03;;;;;;;;;;5014563;28;20501;-74
2023/05/16 07:25:52;;;;;;;12.17;7.33;;;;;;;;;;5019386;28;20453;-74
2023/05/16 07:28:18;;;;;;;13.10;9.13;;;;;;;;;;5019319;28;20450;-75
2023/05/16 07:30:45;;;;;;;9.77;7.00;;;;;;;;;;5029698;28;20430;-75
2023/05/16 07:33:11;;;;;;;7.40;6.60;;;;;;;;;;5022486;28;20441;-75
2023/05/16 07:35:38;;;;;;;8.20;7.37;;;;;;;;;;5034117;28;20614;-73
2023/05/16 07:38:04;;;;;;;5.13;4.67;;;;;;;;;;5024395;28;20806;-74
2023/05/16 07:40:30;;;;;;;8.30;7.67;;;;;;;;;;5029848;28;20494;-76
2023/05/16 07:42:56;;;;;;;10.47;6.93;;;;;;;;;;5024653;28;20486;-73
2023/05/16 07:45:22;;;;;;;6.80;6.17;;;;;;;;;;5020546;28;20854;-75
2023/05/16 07:47:48;;;;;;;9.00;5.97;;;;;;;;;;5014048;28;20435;-75
2023/05/16 07:50:14;;;;;;;6.33;5.73;;;;;;;;;;5003801;28;20446;-75
2023/05/16 07:52:40;;;;;;;9.60;3.90;;;;;;;;;;5013541;28;20699;-74
2023/05/16 07:55:09;;;;;;;2.50;2.40;;;;;;;;;;5017627;28;20880;-75
2023/05/16 07:57:35;;;;;;;11.40;10.63;;;;;;;;;;5009779;28;21101;-75
2023/05/16 08:00:03;;;;;;;3.90;3.60;;;;;;;;;;5011388;28;20470;-76
2023/05/16 08:02:29;;;;;;;6.27;5.77;;;;;;;;;;5016513;28;20430;-74
2023/05/16 08:04:58;;;;;;;5.53;4.97;;;;;;;;;;5004863;28;20526;-75
2023/05/16 08:07:24;;;;;;;6.07;5.73;;;;;;;;;;5012782;28;20765;-74
2023/05/16 08:09:50;;;;;;;4.03;3.93;;;;;;;;;;5009158;28;20439;-75
2023/05/16 08:12:16;;;;;;;4.90;4.70;;;;;;;;;;5031763;28;20762;-74
2023/05/16 08:14:42;;;;;;;5.67;5.10;;;;;;;;;;5015542;28;20928;-75
2023/05/16 08:17:08;;;;;;;5.53;5.13;;;;;;;;;;5024255;28;20406;-75
2023/05/16 08:19:34;;;;;;;4.55;3.80;;;;;;;;;;5012267;28;20412;-74
2023/05/16 08:22:01;;;;;;;6.90;5.13;;;;;;;;;;4990396;28;20413;-74
2023/05/16 08:24:27;;;;;;;4.63;4.37;;;;;;;;;;5019826;28;20457;-74
2023/05/16 08:26:54;;;;;;;5.00;4.63;;;;;;;;;;5032327;28;20418;-75
2023/05/16 08:29:20;;;;;;;4.80;4.33;;;;;;;;;;5022225;28;20453;-75
2023/05/16 08:31:46;;;;;;;4.80;4.50;;;;;;;;;;5013898;28;20443;-75
2023/05/16 08:34:12;;;;;;;3.63;3.33;;;;;;;;;;5014444;28;20457;-75
2023/05/16 08:36:38;;;;;;;4.73;4.33;;;;;;;;;;5015282;28;20791;-74
2023/05/16 08:39:04;;;;;;;4.10;3.87;;;;;;;;;;5000072;28;20474;-76
2023/05/16 08:41:31;;;;;;;4.93;4.70;;;;;;;;;;5020445;28;20659;-75
2023/05/16 08:43:57;;;;;;;6.53;5.37;;;;;;;;;;4996378;28;20802;-74
2023/05/16 08:46:23;;;;;;;3.45;3.13;;;;;;;;;;4991695;28;20401;-77
2023/05/16 08:48:55;;;;;;;4.93;3.90;;;;;;;;;;5015935;28;20619;-77
2023/05/16 08:51:24;;;;;;;5.63;3.60;;;;;;;;;;5005771;28;20462;-76
2023/05/16 08:53:53;;;;;;;4.63;4.33;;;;;;;;;;4986257;28;20443;-76
2023/05/16 08:56:21;;;;;;;14.48;4.88;;;;;;;;;;5004004;28;20755;-76
2023/05/16 08:58:47;;;;;;;10.10;3.63;;;;;;;;;;5018211;28;20682;-76
2023/05/16 09:01:13;;;;;;;5.23;3.50;;;;;;;;;;5029170;28;20422;-77
2023/05/16 09:03:42;;;;;;;3.43;3.23;;;;;;;;;;5010539;28;20778;-75
2023/05/16 09:06:08;;;;;;;2.67;2.50;;;;;;;;;;5023793;28;20580;-79
2023/05/16 09:08:34;;;;;;;3.57;3.37;;;;;;;;;;5006604;28;20968;-77
2023/05/16 09:11:01;;;;;;;4.30;4.00;;;;;;;;;;5009992;28;20430;-77
2023/05/16 09:13:27;;;;;;;3.23;2.80;;;;;;;;;;5021712;28;20799;-77
2023/05/16 09:16:09;;;;;;;4.13;3.83;;;;;;;;;;5038248;28;20461;-76
2023/05/16 09:18:39;;;;;;;5.37;3.87;;;;;;;;;;5031069;28;20577;-77
2023/05/16 09:21:08;;;;;;;5.50;2.23;;;;;;;;;;5024787;28;20964;-77
2023/05/16 09:23:35;;;;;;;5.43;2.90;;;;;;;;;;5021288;28;20885;-77
2023/05/16 09:26:01;;;;;;;5.97;4.37;;;;;;;;;;5029966;28;20420;-76
2023/05/16 09:28:27;;;;;;;4.17;3.97;;;;;;;;;;5017906;28;20439;-78
2023/05/16 09:30:58;;;;;;;5.40;3.00;;;;;;;;;;5022728;28;21323;-78
2023/05/16 09:33:28;;;;;;;6.07;4.40;;;;;;;;;;5017488;28;20537;-78
2023/05/16 09:36:03;;;;;;;2.90;2.70;;;;;;;;;;5014521;28;20426;-78
2023/05/16 09:38:29;;;;;;;3.53;3.30;;;;;;;;;;5025674;28;20580;-75
2023/05/16 09:40:55;;;;;;;3.07;2.87;;;;;;;;;;5031114;28;20660;-75
2023/05/16 09:43:23;;;;;;;2.80;2.60;;;;;;;;;;5027063;28;20457;-74
2023/05/16 09:45:49;;;;;;;3.50;3.20;;;;;;;;;;5024770;28;20839;-75
2023/05/16 09:48:16;;;;;;;3.60;3.40;;;;;;;;;;5009871;28;20554;-74
2023/05/16 09:50:47;;;;;;;4.00;3.20;;;;;;;;;;5025432;28;20968;-74
2023/05/16 09:53:13;;;;;;;2.60;2.40;;;;;;;;;;5009866;28;20443;-74
2023/05/16 09:55:39;;;;;;;4.10;3.70;;;;;;;;;;5020175;28;20448;-74
2023/05/16 09:58:05;;;;;;;4.13;3.93;;;;;;;;;;5014831;28;20480;-74
2023/05/16 10:00:32;;;;;;;3.20;3.10;;;;;;;;;;5026889;28;20469;-75
2023/05/16 10:03:00;;;;;;;3.47;3.20;;;;;;;;;;5010432;28;20488;-75
2023/05/16 10:05:26;;;;;;;2.73;2.63;;;;;;;;;;5035867;28;20444;-74
2023/05/16 10:07:55;;;;;;;2.67;2.50;;;;;;;;;;4995230;28;20525;-75
2023/05/16 10:10:21;;;;;;;9.83;8.93;;;;;;;;;;5015717;28;20830;-74
2023/05/16 10:12:48;;;;;;;2.87;2.67;;;;;;;;;;5024045;28;20514;-75
2023/05/16 10:15:15;;;;;;;6.90;6.40;;;;;;;;;;5018516;28;20457;-73
2023/05/16 10:17:44;;;;;;;4.10;3.57;;;;;;;;;;4998063;28;20767;-74
2023/05/16 10:20:11;;;;;;;3.53;3.33;;;;;;;;;;5011676;28;20828;-73
2023/05/16 10:22:40;;;;;;;4.03;3.93;;;;;;;;;;5021631;28;20434;-73
2023/05/16 10:25:25;;;;;;;7.10;3.00;;;;;;;;;;5016337;28;20465;-72
2023/05/16 10:27:51;;;;;;;5.40;3.03;;;;;;;;;;5021958;28;20419;-74
2023/05/16 10:30:18;;;;;;;17.93;16.53;;;;;;;;;;5016787;28;20462;-74
2023/05/16 10:32:45;;;;;;;3.30;3.20;;;;;;;;;;5017139;28;20523;-74
2023/05/16 10:35:12;;;;;;;12.53;11.53;;;;;;;;;;5015544;28;20480;-77
2023/05/16 10:37:38;;;;;;;3.83;3.63;;;;;;;;;;5020881;28;20434;-74
2023/05/16 10:40:06;;;;;;;6.37;4.33;;;;;;;;;;5017234;28;20989;-74
2023/05/16 10:42:33;;;;;;;4.00;3.80;;;;;;;;;;5015818;28;20619;-74
2023/05/16 10:45:17;;;;;;;5.50;5.00;;;;;;;;;;5023144;28;20443;-75
2023/05/16 10:47:53;;;;;;;5.47;4.97;;;;;;;;;;5007366;28;20419;-74
2023/05/16 10:50:32;;;;;;;16.27;14.83;;;;;;;;;;5008331;28;20445;-75
2023/05/16 10:53:10;;;;;;;6.87;4.43;;;;;;;;;;5024209;28;20904;-75
2023/05/16 10:55:38;;;;;;;5.37;5.10;;;;;;;;;;5016108;28;20442;-76
2023/05/16 10:58:04;;;;;;;22.23;19.93;;;;;;;;;;4995931;28;20485;-75
2023/05/16 11:00:30;;;;;;;7.70;5.87;;;;;;;;;;5022884;28;20466;-74
2023/05/16 11:03:06;;;;;;;19.90;16.30;;;;;;;;;;5015140;28;20438;-75
2023/05/16 11:05:33;;;;;;;6.73;6.13;;;;;;;;;;5020894;28;20447;-75
2023/05/16 11:08:05;;;;;;;18.33;16.80;;;;;;;;;;5005194;28;20432;-78
2023/05/16 11:10:32;;;;;;;4.40;4.30;;;;;;;;;;5011208;28;21026;-76
2023/05/16 11:13:07;;;;;;;4.33;2.90;;;;;;;;;;5047611;28;20442;-76
2023/05/16 11:15:33;;;;;;;4.90;4.50;;;;;;;;;;5032784;28;20497;-75
2023/05/16 11:18:07;;;;;;;4.90;4.70;;;;;;;;;;5021341;28;20434;-75
2023/05/16 11:20:37;;;;;;;6.83;4.37;;;;;;;;;;5009995;28;20498;-75
2023/05/16 11:23:21;;;;;;;5.53;5.07;;;;;;;;;;5025925;28;20442;-75
2023/05/16 11:25:49;;;;;;;6.10;5.50;;;;;;;;;;5008776;28;20451;-76
2023/05/16 11:28:18;;;;;;;8.77;7.57;;;;;;;;;;4985680;28;20815;-75
2023/05/16 11:30:48;;;;;;;3.40;3.10;;;;;;;;;;5004277;28;20438;-75
2023/05/16 11:33:14;;;;;;;4.03;2.90;;;;;;;;;;5014287;28;20419;-75
2023/05/16 11:35:41;;;;;;;5.03;4.00;;;;;;;;;;5026046;28;20434;-77
2023/05/16 11:38:13;;;;;;;3.20;3.00;;;;;;;;;;5006260;28;20443;-77
2023/05/16 11:40:44;;;;;;;3.90;3.50;;;;;;;;;;5030838;28;21032;-75
2023/05/16 11:43:11;;;;;;;2.83;2.73;;;;;;;;;;5014861;28;20439;-77
2023/05/16 11:45:37;;;;;;;5.87;5.53;;;;;;;;;;5000781;28;20529;-75
2023/05/16 11:48:03;;;;;;;3.00;3.00;;;;;;;;;;5016295;28;20980;-73
2023/05/16 11:50:29;;;;;;;5.30;5.10;;;;;;;;;;5017241;28;20540;-74
2023/05/16 11:52:56;;;;;;;4.73;4.50;;;;;;;;;;5022582;28;20725;-75
2023/05/16 11:55:23;;;;;;;6.07;5.53;;;;;;;;;;5015372;28;20428;-73
2023/05/16 11:57:51;;;;;;;4.73;4.57;;;;;;;;;;5017819;28;20587;-76
2023/05/16 12:00:18;;;;;;;3.43;3.30;;;;;;;;;;5028609;28;20642;-74
2023/05/16 12:02:48;;;;;;;5.00;4.80;;;;;;;;;;5004414;28;20458;-75
2023/05/16 12:05:15;;;;;;;5.13;4.73;;;;;;;;;;5012183;28;20512;-76
2023/05/16 12:07:43;;;;;;;3.60;3.40;;;;;;;;;;5020563;28;20430;-76
2023/05/16 12:10:11;;;;;;;5.10;4.90;;;;;;;;;;5004510;28;20964;-74
2023/05/16 12:12:38;;;;;;;4.57;4.37;;;;;;;;;;5006696;28;20447;-73
2023/05/16 12:15:05;;;;;;;5.77;5.20;;;;;;;;;;5014681;28;20457;-74
2023/05/16 12:17:31;;;;;;;6.00;5.70;;;;;;;;;;5019090;28;20437;-76
2023/05/16 12:19:57;;;;;;;3.27;2.97;;;;;;;;;;5018825;28;20527;-75
2023/05/16 12:22:27;;;;;;;4.50;4.30;;;;;;;;;;4994215;28;20777;-75
2023/05/16 12:24:53;;;;;;;4.53;4.30;;;;;;;;;;4987517;28;20498;-76
2023/05/16 12:27:22;;;;;;;2.63;2.53;;;;;;;;;;5005562;28;20466;-76
2023/05/16 12:29:49;;;;;;;4.00;3.90;;;;;;;;;;4972940;28;21199;-76
2023/05/16 12:32:19;;;;;;;3.50;3.40;;;;;;;;;;4995665;28;20802;-76
2023/05/16 12:34:52;;;;;;;2.10;2.00;;;;;;;;;;4992741;28;20615;-77
2023/05/16 12:37:18;;;;;;;2.83;2.73;;;;;;;;;;4983092;28;20569;-75
2023/05/16 12:39:46;;;;;;;3.17;2.90;;;;;;;;;;4978234;28;20687;-75
2023/05/16 12:42:13;;;;;;;2.50;2.33;;;;;;;;;;5010845;28;20450;-76
2023/05/16 12:44:39;;;;;;;7.23;6.80;;;;;;;;;;4999107;28;20490;-76
2023/05/16 12:47:11;;;;;;;3.17;3.10;;;;;;;;;;5016384;28;20438;-74
2023/05/16 12:49:43;;;;;;;2.47;2.37;;;;;;;;;;5014651;28;20458;-75
2023/05/16 12:52:17;;;;;;;3.13;2.40;;;;;;;;;;4997137;28;20933;-74
2023/05/16 12:54:44;;;;;;;4.33;4.13;;;;;;;;;;4976741;28;20453;-74
2023/05/16 12:57:10;;;;;;;8.70;4.90;;;;;;;;;;5012197;28;20500;-75
2023/05/16 12:59:36;;;;;;;4.17;3.87;;;;;;;;;;4998731;28;20473;-75
2023/05/16 13:02:03;;;;;;;2.30;2.10;;;;;;;;;;5016216;28;20431;-74
2023/05/16 13:04:29;;;;;;;2.57;2.47;;;;;;;;;;5003982;28;20486;-74
2023/05/16 13:06:56;;;;;;;2.10;2.00;;;;;;;;;;5009560;28;20446;-74
2023/05/16 13:09:22;;;;;;;2.77;2.67;;;;;;;;;;4997598;28;20447;-74
2023/05/16 13:11:49;;;;;;;2.27;2.17;;;;;;;;;;5017335;28;20458;-75
2023/05/16 13:14:16;;;;;;;2.50;2.43;;;;;;;;;;5021060;28;20447;-73
2023/05/16 13:16:42;;;;;;;2.47;2.37;;;;;;;;;;5014135;28;20856;-74
2023/05/16 13:19:08;;;;;;;2.97;2.77;;;;;;;;;;5002832;28;20503;-74
2023/05/16 13:21:34;;;;;;;1.90;1.77;;;;;;;;;;5007846;28;20435;-75
2023/05/16 13:24:00;;;;;;;2.17;2.07;;;;;;;;;;4998471;28;20883;-75
2023/05/16 13:26:26;;;;;;;3.47;2.60;;;;;;;;;;5017824;28;20501;-74
2023/05/16 13:28:53;;;;;;;2.83;2.77;;;;;;;;;;5013779;28;20448;-75
2023/05/16 13:31:21;;;;;;;2.17;2.07;;;;;;;;;;5021053;28;20409;-74
2023/05/16 13:33:47;;;;;;;2.70;2.50;;;;;;;;;;5014227;28;20508;-72
2023/05/16 13:36:15;;;;;;;1.90;1.30;;;;;;;;;;5019807;28;20435;-75
2023/05/16 13:38:42;;;;;;;2.80;2.60;;;;;;;;;;5013745;28;20435;-75
2023/05/16 13:41:08;;;;;;;1.80;1.80;;;;;;;;;;5022743;28;20447;-74
2023/05/16 13:43:34;;;;;;;2.37;2.20;;;;;;;;;;5011668;28;20466;-74
2023/05/16 13:46:00;;;;;;;3.40;2.93;;;;;;;;;;5016405;28;20414;-73
2023/05/16 13:48:26;;;;;;;16.27;14.87;;;;;;;;;;5025413;28;20430;-75
2023/05/16 13:50:55;;;;;;;6.33;5.80;;;;;;;;;;5023425;28;20502;-75
2023/05/16 13:53:22;;;;;;;16.23;14.97;;;;;;;;;;5015726;28;20494;-76
2023/05/16 13:55:48;;;;;;;5.07;3.87;;;;;;;;;;5017735;28;20426;-75
2023/05/16 13:58:14;;;;;;;3.40;2.43;;;;;;;;;;5022279;28;20431;-76
2023/05/16 14:00:40;;;;;;;5.30;3.93;;;;;;;;;;5027208;28;20466;-77
2023/05/16 14:03:06;;;;;;;4.60;4.30;;;;;;;;;;5018071;28;20489;-77
2023/05/16 14:05:32;;;;;;;4.70;4.40;;;;;;;;;;5013096;28;20507;-77
2023/05/16 14:07:58;;;;;;;2.87;2.67;;;;;;;;;;5012633;28;21001;-77
2023/05/16 14:10:25;;;;;;;4.67;3.23;;;;;;;;;;5011994;28;20458;-76
2023/05/16 14:12:51;;;;;;;2.70;2.60;;;;;;;;;;5007475;28;20469;-74
2023/05/16 14:15:23;;;;;;;4.93;4.63;;;;;;;;;;5021776;28;20854;-76
2023/05/16 14:18:06;;;;;;;4.10;3.80;;;;;;;;;;4998252;28;20504;-75
2023/05/16 14:20:32;;;;;;;5.60;5.27;;;;;;;;;;5015363;28;20468;-76
2023/05/16 14:22:58;;;;;;;3.50;3.40;;;;;;;;;;5023098;28;20422;-75
2023/05/16 14:25:24;;;;;;;3.57;3.37;;;;;;;;;;5009127;28;20486;-76
2023/05/16 14:27:50;;;;;;;3.77;3.47;;;;;;;;;;5024333;28;20650;-76
2023/05/16 14:30:16;;;;;;;3.77;3.50;;;;;;;;;;5018205;28;20489;-75
2023/05/16 14:32:43;;;;;;;3.30;3.10;;;;;;;;;;5014241;28;20451;-76